sensor_id;sensor_type;location;lat;lon;timestamp;pressure;altitude;pressure_sealevel;temperature;humidity
53041;BME280;39326;42.650;23.248;2023-11-19T00:01:08;92473.25;;;1.12;73.85
53041;BME280;39326;42.650;23.248;2023-11-19T00:03:33;92479.16;;;1.22;73.79
53041;BME280;39326;42.650;23.248;2023-11-19T00:06:00;92479.38;;;1.04;73.33
53041;BME280;39326;42.650;23.248;2023-11-19T00:08:26;92474.91;;;1.17;73.19
53041;BME280;39326;42.650;23.248;2023-11-19T00:10:52;92481.66;;;1.06;73.66
53041;BME280;39326;42.650;23.248;2023-11-19T00:13:18;92466.34;;;1.08;72.54
53041;BME280;39326;42.650;23.248;2023-11-19T00:15:43;92465.00;;;1.02;72.84
53041;BME280;39326;42.650;23.248;2023-11-19T00:18:10;92486.00;;;1.02;72.94
53041;BME280;39326;42.650;23.248;2023-11-19T00:20:36;92480.75;;;1.02;72.57
53041;BME280;39326;42.650;23.248;2023-11-19T00:23:01;92481.47;;;1.11;73.06
53041;BME280;39326;42.650;23.248;2023-11-19T00:25:28;92482.97;;;1.00;73.25
53041;BME280;39326;42.650;23.248;2023-11-19T00:27:54;92480.09;;;0.93;73.58
53041;BME280;39326;42.650;23.248;2023-11-19T00:30:21;92485.16;;;0.98;73.12
53041;BME280;39326;42.650;23.248;2023-11-19T00:32:47;92479.94;;;1.10;73.17
53041;BME280;39326;42.650;23.248;2023-11-19T00:35:12;92493.88;;;1.02;72.97
53041;BME280;39326;42.650;23.248;2023-11-19T00:37:41;92490.09;;;1.11;73.00
53041;BME280;39326;42.650;23.248;2023-11-19T00:40:08;92487.78;;;0.98;73.80
53041;BME280;39326;42.650;23.248;2023-11-19T00:42:36;92492.38;;;1.01;73.65
53041;BME280;39326;42.650;23.248;2023-11-19T00:45:01;92484.16;;;1.02;73.84
53041;BME280;39326;42.650;23.248;2023-11-19T00:47:27;92492.38;;;1.01;73.72
53041;BME280;39326;42.650;23.248;2023-11-19T00:49:53;92488.53;;;0.98;73.69
53041;BME280;39326;42.650;23.248;2023-11-19T00:52:19;92486.25;;;0.97;74.24
53041;BME280;39326;42.650;23.248;2023-11-19T00:54:44;92489.41;;;0.69;74.58
53041;BME280;39326;42.650;23.248;2023-11-19T00:57:10;92487.94;;;0.80;74.35
53041;BME280;39326;42.650;23.248;2023-11-19T00:59:35;92501.25;;;0.75;74.29
53041;BME280;39326;42.650;23.248;2023-11-19T01:02:01;92496.91;;;0.79;74.59
53041;BME280;39326;42.650;23.248;2023-11-19T01:04:29;92496.00;;;0.75;74.36
53041;BME280;39326;42.650;23.248;2023-11-19T01:06:55;92495.59;;;0.85;73.16
53041;BME280;39326;42.650;23.248;2023-11-19T01:09:20;92488.69;;;0.81;74.69
53041;BME280;39326;42.650;23.248;2023-11-19T01:11:46;92501.38;;;0.79;74.17
53041;BME280;39326;42.650;23.248;2023-11-19T01:14:11;92494.72;;;0.81;74.12
53041;BME280;39326;42.650;23.248;2023-11-19T01:16:37;92495.66;;;0.77;73.95
53041;BME280;39326;42.650;23.248;2023-11-19T01:19:02;92493.94;;;0.81;74.71
53041;BME280;39326;42.650;23.248;2023-11-19T01:21:30;92497.84;;;0.75;74.48
53041;BME280;39326;42.650;23.248;2023-11-19T01:23:57;92493.09;;;0.89;74.39
53041;BME280;39326;42.650;23.248;2023-11-19T01:26:23;92495.09;;;0.92;73.73
53041;BME280;39326;42.650;23.248;2023-11-19T01:28:49;92494.88;;;0.97;74.56
53041;BME280;39326;42.650;23.248;2023-11-19T01:31:17;92504.44;;;0.81;73.90
53041;BME280;39326;42.650;23.248;2023-11-19T01:33:42;92505.91;;;0.70;74.13
53041;BME280;39326;42.650;23.248;2023-11-19T01:36:08;92514.22;;;0.93;73.21
53041;BME280;39326;42.650;23.248;2023-11-19T01:38:36;92513.13;;;0.94;72.58
53041;BME280;39326;42.650;23.248;2023-11-19T01:41:01;92526.25;;;0.94;72.76
53041;BME280;39326;42.650;23.248;2023-11-19T01:43:46;92510.25;;;0.86;73.31
53041;BME280;39326;42.650;23.248;2023-11-19T01:46:12;92508.84;;;0.89;72.28
53041;BME280;39326;42.650;23.248;2023-11-19T01:48:41;92514.31;;;0.96;72.66
53041;BME280;39326;42.650;23.248;2023-11-19T01:51:08;92514.59;;;1.03;72.51
53041;BME280;39326;42.650;23.248;2023-11-19T01:53:36;92516.41;;;0.90;73.09
53041;BME280;39326;42.650;23.248;2023-11-19T01:56:02;92526.38;;;0.76;73.01
53041;BME280;39326;42.650;23.248;2023-11-19T01:58:29;92529.88;;;0.68;73.25
53041;BME280;39326;42.650;23.248;2023-11-19T02:00:56;92529.28;;;0.62;73.02
53041;BME280;39326;42.650;23.248;2023-11-19T02:03:22;92525.97;;;0.74;72.63
53041;BME280;39326;42.650;23.248;2023-11-19T02:05:51;92524.44;;;0.73;72.40
53041;BME280;39326;42.650;23.248;2023-11-19T02:08:18;92511.50;;;0.68;72.35
53041;BME280;39326;42.650;23.248;2023-11-19T02:10:44;92513.78;;;0.70;72.49
53041;BME280;39326;42.650;23.248;2023-11-19T02:13:10;92519.75;;;0.58;71.39
53041;BME280;39326;42.650;23.248;2023-11-19T02:15:35;92505.91;;;0.70;71.61
53041;BME280;39326;42.650;23.248;2023-11-19T02:18:21;92514.16;;;0.80;71.11
53041;BME280;39326;42.650;23.248;2023-11-19T02:20:50;92503.09;;;0.75;71.89
53041;BME280;39326;42.650;23.248;2023-11-19T02:23:16;92495.56;;;0.73;71.45
53041;BME280;39326;42.650;23.248;2023-11-19T02:25:43;92506.31;;;0.80;71.42
53041;BME280;39326;42.650;23.248;2023-11-19T02:28:12;92509.81;;;0.84;71.33
53041;BME280;39326;42.650;23.248;2023-11-19T02:30:38;92508.25;;;0.83;71.08
53041;BME280;39326;42.650;23.248;2023-11-19T02:33:04;92502.00;;;0.76;72.07
53041;BME280;39326;42.650;23.248;2023-11-19T02:35:33;92492.97;;;0.85;70.71
53041;BME280;39326;42.650;23.248;2023-11-19T02:37:59;92487.22;;;0.71;72.42
53041;BME280;39326;42.650;23.248;2023-11-19T02:40:26;92476.63;;;0.68;72.18
53041;BME280;39326;42.650;23.248;2023-11-19T02:42:53;92480.00;;;0.68;71.90
53041;BME280;39326;42.650;23.248;2023-11-19T02:45:19;92488.31;;;0.70;71.48
53041;BME280;39326;42.650;23.248;2023-11-19T02:47:45;92488.88;;;0.76;71.79
53041;BME280;39326;42.650;23.248;2023-11-19T02:50:11;92498.56;;;0.63;71.95
53041;BME280;39326;42.650;23.248;2023-11-19T02:52:46;92503.38;;;0.61;71.68
53041;BME280;39326;42.650;23.248;2023-11-19T02:55:12;92494.28;;;0.58;72.87
53041;BME280;39326;42.650;23.248;2023-11-19T02:57:40;92497.22;;;0.57;72.34
53041;BME280;39326;42.650;23.248;2023-11-19T03:00:22;92479.13;;;0.43;72.27
53041;BME280;39326;42.650;23.248;2023-11-19T03:02:57;92493.66;;;0.41;72.10
53041;BME280;39326;42.650;23.248;2023-11-19T03:05:35;92493.09;;;0.35;72.65
53041;BME280;39326;42.650;23.248;2023-11-19T03:08:00;92493.34;;;0.42;73.18
53041;BME280;39326;42.650;23.248;2023-11-19T03:10:26;92505.88;;;0.36;72.69
53041;BME280;39326;42.650;23.248;2023-11-19T03:12:52;92515.09;;;0.43;72.98
53041;BME280;39326;42.650;23.248;2023-11-19T03:15:17;92515.94;;;0.34;74.10
53041;BME280;39326;42.650;23.248;2023-11-19T03:17:43;92518.06;;;0.32;73.75
53041;BME280;39326;42.650;23.248;2023-11-19T03:20:10;92507.03;;;0.48;72.55
53041;BME280;39326;42.650;23.248;2023-11-19T03:22:39;92510.69;;;0.34;72.39
53041;BME280;39326;42.650;23.248;2023-11-19T03:25:07;92514.69;;;0.32;72.69
53041;BME280;39326;42.650;23.248;2023-11-19T03:27:35;92515.53;;;0.24;73.79
53041;BME280;39326;42.650;23.248;2023-11-19T03:30:02;92515.03;;;0.30;73.64
53041;BME280;39326;42.650;23.248;2023-11-19T03:32:30;92513.81;;;0.28;73.48
53041;BME280;39326;42.650;23.248;2023-11-19T03:34:56;92511.41;;;0.14;74.31
53041;BME280;39326;42.650;23.248;2023-11-19T03:37:21;92514.25;;;0.09;73.70
53041;BME280;39326;42.650;23.248;2023-11-19T03:39:47;92514.25;;;0.09;73.90
53041;BME280;39326;42.650;23.248;2023-11-19T03:42:12;92516.84;;;0.09;75.09
53041;BME280;39326;42.650;23.248;2023-11-19T03:44:38;92518.72;;;0.29;73.40
53041;BME280;39326;42.650;23.248;2023-11-19T03:47:04;92524.47;;;0.23;74.43
53041;BME280;39326;42.650;23.248;2023-11-19T03:49:29;92527.34;;;0.09;74.32
53041;BME280;39326;42.650;23.248;2023-11-19T03:51:55;92531.75;;;0.17;74.17
53041;BME280;39326;42.650;23.248;2023-11-19T03:54:20;92529.75;;;0.14;74.86
53041;BME280;39326;42.650;23.248;2023-11-19T03:56:48;92532.66;;;0.21;74.02
53041;BME280;39326;42.650;23.248;2023-11-19T03:59:14;92527.28;;;0.18;73.82
53041;BME280;39326;42.650;23.248;2023-11-19T04:01:41;92528.47;;;0.29;73.83
53041;BME280;39326;42.650;23.248;2023-11-19T04:04:06;92536.75;;;0.10;73.80
53041;BME280;39326;42.650;23.248;2023-11-19T04:06:32;92534.56;;;0.12;74.02
53041;BME280;39326;42.650;23.248;2023-11-19T04:08:57;92553.25;;;0.11;73.87
53041;BME280;39326;42.650;23.248;2023-11-19T04:11:23;92553.81;;;0.16;74.19
53041;BME280;39326;42.650;23.248;2023-11-19T04:13:48;92558.25;;;0.24;73.83
53041;BME280;39326;42.650;23.248;2023-11-19T04:16:14;92561.50;;;0.21;73.52
53041;BME280;39326;42.650;23.248;2023-11-19T04:18:40;92560.94;;;0.36;73.85
53041;BME280;39326;42.650;23.248;2023-11-19T04:21:07;92558.84;;;0.30;73.32
53041;BME280;39326;42.650;23.248;2023-11-19T04:23:32;92561.56;;;0.33;73.86
53041;BME280;39326;42.650;23.248;2023-11-19T04:25:58;92566.72;;;0.51;73.56
53041;BME280;39326;42.650;23.248;2023-11-19T04:28:23;92560.63;;;0.38;72.68
53041;BME280;39326;42.650;23.248;2023-11-19T04:30:52;92559.31;;;0.53;72.26
53041;BME280;39326;42.650;23.248;2023-11-19T04:33:18;92564.78;;;0.39;72.66
53041;BME280;39326;42.650;23.248;2023-11-19T04:35:44;92571.97;;;0.51;73.05
53041;BME280;39326;42.650;23.248;2023-11-19T04:38:09;92576.13;;;0.52;72.52
53041;BME280;39326;42.650;23.248;2023-11-19T04:40:34;92581.41;;;0.73;71.97
53041;BME280;39326;42.650;23.248;2023-11-19T04:43:00;92581.25;;;0.69;71.87
53041;BME280;39326;42.650;23.248;2023-11-19T04:45:26;92576.88;;;0.52;71.80
53041;BME280;39326;42.650;23.248;2023-11-19T04:47:51;92576.59;;;0.54;71.72
53041;BME280;39326;42.650;23.248;2023-11-19T04:50:17;92573.25;;;0.66;71.90
53041;BME280;39326;42.650;23.248;2023-11-19T04:52:43;92575.06;;;0.74;70.74
53041;BME280;39326;42.650;23.248;2023-11-19T04:55:12;92574.41;;;0.77;70.20
53041;BME280;39326;42.650;23.248;2023-11-19T04:57:39;92573.63;;;0.76;70.42
53041;BME280;39326;42.650;23.248;2023-11-19T05:00:05;92563.31;;;0.71;70.87
53041;BME280;39326;42.650;23.248;2023-11-19T05:02:34;92578.63;;;0.69;70.79
53041;BME280;39326;42.650;23.248;2023-11-19T05:04:59;92585.72;;;0.69;70.48
53041;BME280;39326;42.650;23.248;2023-11-19T05:07:25;92580.31;;;0.53;70.41
53041;BME280;39326;42.650;23.248;2023-11-19T05:09:51;92597.00;;;0.69;69.99
53041;BME280;39326;42.650;23.248;2023-11-19T05:12:17;92590.72;;;0.61;70.12
53041;BME280;39326;42.650;23.248;2023-11-19T05:14:42;92600.28;;;0.66;70.54
53041;BME280;39326;42.650;23.248;2023-11-19T05:17:14;92593.94;;;0.67;70.14
53041;BME280;39326;42.650;23.248;2023-11-19T05:19:40;92596.63;;;0.79;70.02
53041;BME280;39326;42.650;23.248;2023-11-19T05:22:05;92587.88;;;0.46;nan
53041;BME280;39326;42.650;23.248;2023-11-19T05:24:33;92584.41;;;0.33;70.55
53041;BME280;39326;42.650;23.248;2023-11-19T05:26:58;92589.38;;;0.26;71.90
53041;BME280;39326;42.650;23.248;2023-11-19T05:29:24;92575.22;;;0.48;71.08
53041;BME280;39326;42.650;23.248;2023-11-19T05:31:49;92580.47;;;0.48;70.83
53041;BME280;39326;42.650;23.248;2023-11-19T05:34:15;92587.78;;;0.33;70.97
53041;BME280;39326;42.650;23.248;2023-11-19T05:36:40;92589.81;;;0.36;71.19
53041;BME280;39326;42.650;23.248;2023-11-19T05:39:06;92600.47;;;0.31;72.10
53041;BME280;39326;42.650;23.248;2023-11-19T05:41:31;92595.53;;;0.30;71.50
53041;BME280;39326;42.650;23.248;2023-11-19T05:43:57;92593.88;;;0.46;71.72
53041;BME280;39326;42.650;23.248;2023-11-19T05:46:22;92602.50;;;0.26;71.85
53041;BME280;39326;42.650;23.248;2023-11-19T05:48:48;92614.16;;;0.37;72.10
53041;BME280;39326;42.650;23.248;2023-11-19T05:51:14;92595.81;;;0.37;72.15
53041;BME280;39326;42.650;23.248;2023-11-19T05:53:42;92598.38;;;0.46;71.52
53041;BME280;39326;42.650;23.248;2023-11-19T05:56:09;92603.13;;;0.52;71.74
53041;BME280;39326;42.650;23.248;2023-11-19T05:58:34;92601.41;;;0.56;71.48
53041;BME280;39326;42.650;23.248;2023-11-19T06:01:01;92605.38;;;0.62;70.49
53041;BME280;39326;42.650;23.248;2023-11-19T06:03:26;92611.56;;;0.58;70.99
53041;BME280;39326;42.650;23.248;2023-11-19T06:05:53;92616.22;;;0.52;71.31
53041;BME280;39326;42.650;23.248;2023-11-19T06:08:20;92622.56;;;0.51;71.30
53041;BME280;39326;42.650;23.248;2023-11-19T06:10:46;92620.03;;;0.63;70.64
53041;BME280;39326;42.650;23.248;2023-11-19T06:13:12;92628.78;;;0.47;70.96
53041;BME280;39326;42.650;23.248;2023-11-19T06:15:43;92620.50;;;0.36;71.80
53041;BME280;39326;42.650;23.248;2023-11-19T06:18:08;92616.94;;;0.41;71.31
53041;BME280;39326;42.650;23.248;2023-11-19T06:20:35;92616.94;;;0.41;71.06
53041;BME280;39326;42.650;23.248;2023-11-19T06:23:00;92624.31;;;0.47;72.06
53041;BME280;39326;42.650;23.248;2023-11-19T06:25:26;92615.69;;;0.38;72.05
53041;BME280;39326;42.650;23.248;2023-11-19T06:27:52;92618.59;;;0.16;72.29
53041;BME280;39326;42.650;23.248;2023-11-19T06:30:18;92610.84;;;0.28;71.64
53041;BME280;39326;42.650;23.248;2023-11-19T06:32:45;92629.72;;;0.42;71.76
53041;BME280;39326;42.650;23.248;2023-11-19T06:35:10;92620.44;;;0.45;72.09
53041;BME280;39326;42.650;23.248;2023-11-19T06:37:38;92620.69;;;0.31;72.59
53041;BME280;39326;42.650;23.248;2023-11-19T06:40:05;92643.84;;;0.29;72.35
53041;BME280;39326;42.650;23.248;2023-11-19T06:42:30;92632.22;;;0.39;71.81
53041;BME280;39326;42.650;23.248;2023-11-19T06:44:56;92622.47;;;0.39;71.39
53041;BME280;39326;42.650;23.248;2023-11-19T06:47:25;92628.81;;;0.38;71.91
53041;BME280;39326;42.650;23.248;2023-11-19T06:49:52;92629.22;;;0.49;71.80
53041;BME280;39326;42.650;23.248;2023-11-19T06:52:17;92624.94;;;0.44;70.97
53041;BME280;39326;42.650;23.248;2023-11-19T06:54:43;92622.19;;;0.41;72.10
53041;BME280;39326;42.650;23.248;2023-11-19T06:57:11;92631.81;;;0.28;71.57
53041;BME280;39326;42.650;23.248;2023-11-19T06:59:37;92628.88;;;0.21;71.39
53041;BME280;39326;42.650;23.248;2023-11-19T07:02:02;92635.22;;;0.20;71.63
53041;BME280;39326;42.650;23.248;2023-11-19T07:04:28;92637.78;;;0.37;71.90
53041;BME280;39326;42.650;23.248;2023-11-19T07:06:53;92636.41;;;0.31;71.97
53041;BME280;39326;42.650;23.248;2023-11-19T07:09:19;92637.75;;;0.07;70.92
53041;BME280;39326;42.650;23.248;2023-11-19T07:11:44;92653.97;;;0.01;71.91
53041;BME280;39326;42.650;23.248;2023-11-19T07:14:11;92645.16;;;0.05;72.20
53041;BME280;39326;42.650;23.248;2023-11-19T07:16:36;92641.59;;;0.10;71.46
53041;BME280;39326;42.650;23.248;2023-11-19T07:19:03;92633.63;;;0.27;71.28
53041;BME280;39326;42.650;23.248;2023-11-19T07:21:28;92640.84;;;0.39;71.34
53041;BME280;39326;42.650;23.248;2023-11-19T07:23:57;92633.28;;;0.38;71.38
53041;BME280;39326;42.650;23.248;2023-11-19T07:26:23;92634.22;;;0.42;70.65
53041;BME280;39326;42.650;23.248;2023-11-19T07:28:51;92633.75;;;0.40;71.15
53041;BME280;39326;42.650;23.248;2023-11-19T07:31:17;92650.03;;;0.24;70.83
53041;BME280;39326;42.650;23.248;2023-11-19T07:33:46;92655.09;;;0.29;71.12
53041;BME280;39326;42.650;23.248;2023-11-19T07:36:13;92674.09;;;0.18;71.45
53041;BME280;39326;42.650;23.248;2023-11-19T07:38:38;92672.50;;;0.34;70.76
53041;BME280;39326;42.650;23.248;2023-11-19T07:41:05;92660.09;;;0.14;71.57
53041;BME280;39326;42.650;23.248;2023-11-19T07:43:31;92669.19;;;0.07;70.97
53041;BME280;39326;42.650;23.248;2023-11-19T07:45:56;92677.25;;;-0.06;71.76
53041;BME280;39326;42.650;23.248;2023-11-19T07:48:25;92648.22;;;0.07;70.97
53041;BME280;39326;42.650;23.248;2023-11-19T07:50:50;92657.44;;;0.22;70.53
53041;BME280;39326;42.650;23.248;2023-11-19T07:53:16;92670.56;;;0.22;71.07
53041;BME280;39326;42.650;23.248;2023-11-19T07:55:42;92668.72;;;0.14;70.21
53041;BME280;39326;42.650;23.248;2023-11-19T07:58:07;92657.00;;;0.12;70.81
53041;BME280;39326;42.650;23.248;2023-11-19T08:00:33;92662.38;;;0.24;70.26
53041;BME280;39326;42.650;23.248;2023-11-19T08:02:58;92665.03;;;0.06;70.55
53041;BME280;39326;42.650;23.248;2023-11-19T08:05:23;92679.50;;;0.21;69.52
53041;BME280;39326;42.650;23.248;2023-11-19T08:07:50;92691.72;;;0.08;69.79
53041;BME280;39326;42.650;23.248;2023-11-19T08:10:18;92673.44;;;-0.09;69.79
53041;BME280;39326;42.650;23.248;2023-11-19T08:12:44;92684.03;;;0.03;70.30
53041;BME280;39326;42.650;23.248;2023-11-19T08:15:09;92689.28;;;0.03;70.34
53041;BME280;39326;42.650;23.248;2023-11-19T08:17:36;92693.13;;;0.06;70.33
53041;BME280;39326;42.650;23.248;2023-11-19T08:20:01;92703.34;;;-0.10;70.58
53041;BME280;39326;42.650;23.248;2023-11-19T08:22:27;92704.84;;;-0.00;70.86
53041;BME280;39326;42.650;23.248;2023-11-19T08:24:52;92687.22;;;0.18;70.72
53041;BME280;39326;42.650;23.248;2023-11-19T08:27:18;92695.19;;;0.30;70.26
53041;BME280;39326;42.650;23.248;2023-11-19T08:29:43;92694.91;;;0.23;69.82
53041;BME280;39326;42.650;23.248;2023-11-19T08:32:09;92686.28;;;0.22;70.35
53041;BME280;39326;42.650;23.248;2023-11-19T08:34:36;92689.31;;;0.33;70.41
53041;BME280;39326;42.650;23.248;2023-11-19T08:37:01;92691.75;;;0.38;69.69
53041;BME280;39326;42.650;23.248;2023-11-19T08:39:27;92697.34;;;0.36;70.05
53041;BME280;39326;42.650;23.248;2023-11-19T08:41:52;92695.63;;;0.41;69.87
53041;BME280;39326;42.650;23.248;2023-11-19T08:44:18;92696.19;;;0.46;69.69
53041;BME280;39326;42.650;23.248;2023-11-19T08:46:51;92699.41;;;0.52;70.09
53041;BME280;39326;42.650;23.248;2023-11-19T08:49:17;92690.75;;;0.60;70.57
53041;BME280;39326;42.650;23.248;2023-11-19T08:51:43;92698.78;;;0.55;70.15
53041;BME280;39326;42.650;23.248;2023-11-19T08:54:09;92693.31;;;0.69;69.67
53041;BME280;39326;42.650;23.248;2023-11-19T08:56:36;92703.97;;;0.72;69.71
53041;BME280;39326;42.650;23.248;2023-11-19T08:59:01;92705.69;;;0.68;69.97
53041;BME280;39326;42.650;23.248;2023-11-19T09:01:27;92699.72;;;0.59;69.42
53041;BME280;39326;42.650;23.248;2023-11-19T09:03:53;92694.31;;;0.55;70.69
53041;BME280;39326;42.650;23.248;2023-11-19T09:06:19;92684.03;;;0.71;69.41
53041;BME280;39326;42.650;23.248;2023-11-19T09:08:44;92687.06;;;0.82;69.32
53041;BME280;39326;42.650;23.248;2023-11-19T09:11:10;92688.19;;;1.02;69.65
53041;BME280;39326;42.650;23.248;2023-11-19T09:13:35;92675.13;;;0.93;69.14
53041;BME280;39326;42.650;23.248;2023-11-19T09:16:01;92678.06;;;0.92;68.54
53041;BME280;39326;42.650;23.248;2023-11-19T09:18:30;92666.09;;;1.03;68.28
53041;BME280;39326;42.650;23.248;2023-11-19T09:20:57;92671.53;;;1.18;68.30
53041;BME280;39326;42.650;23.248;2023-11-19T09:23:22;92680.56;;;1.30;67.64
53041;BME280;39326;42.650;23.248;2023-11-19T09:25:48;92698.81;;;0.84;67.08
53041;BME280;39326;42.650;23.248;2023-11-19T09:28:13;92692.91;;;0.58;66.90
53041;BME280;39326;42.650;23.248;2023-11-19T09:30:39;92697.75;;;0.77;68.26
53041;BME280;39326;42.650;23.248;2023-11-19T09:33:05;92703.41;;;0.87;67.94
53041;BME280;39326;42.650;23.248;2023-11-19T09:35:30;92682.56;;;1.12;67.85
53041;BME280;39326;42.650;23.248;2023-11-19T09:37:56;92669.00;;;1.10;68.15
53041;BME280;39326;42.650;23.248;2023-11-19T09:40:22;92655.94;;;1.22;67.74
53041;BME280;39326;42.650;23.248;2023-11-19T09:42:47;92654.66;;;1.40;67.31
53041;BME280;39326;42.650;23.248;2023-11-19T09:45:17;92648.47;;;1.24;67.19
53041;BME280;39326;42.650;23.248;2023-11-19T09:47:46;92645.84;;;1.24;67.17
53041;BME280;39326;42.650;23.248;2023-11-19T09:50:16;92634.13;;;1.42;67.49
53041;BME280;39326;42.650;23.248;2023-11-19T09:52:44;92623.50;;;1.51;67.40
53041;BME280;39326;42.650;23.248;2023-11-19T09:55:10;92613.53;;;1.44;67.76
53041;BME280;39326;42.650;23.248;2023-11-19T09:57:39;92617.94;;;1.53;67.03
53041;BME280;39326;42.650;23.248;2023-11-19T10:00:07;92616.53;;;1.55;66.40
53041;BME280;39326;42.650;23.248;2023-11-19T10:02:35;92617.56;;;1.75;66.26
53041;BME280;39326;42.650;23.248;2023-11-19T10:05:06;92627.19;;;1.71;65.06
53041;BME280;39326;42.650;23.248;2023-11-19T10:07:33;92620.19;;;1.75;65.73
53041;BME280;39326;42.650;23.248;2023-11-19T10:10:00;92623.78;;;1.70;64.67
53041;BME280;39326;42.650;23.248;2023-11-19T10:12:26;92627.28;;;1.62;65.53
53041;BME280;39326;42.650;23.248;2023-11-19T10:14:56;92615.25;;;1.74;64.82
53041;BME280;39326;42.650;23.248;2023-11-19T10:17:36;92626.44;;;1.83;64.26
53041;BME280;39326;42.650;23.248;2023-11-19T10:20:01;92643.25;;;1.57;63.58
53041;BME280;39326;42.650;23.248;2023-11-19T10:22:28;92642.19;;;1.70;64.81
53041;BME280;39326;42.650;23.248;2023-11-19T10:24:53;92636.94;;;1.70;64.02
53041;BME280;39326;42.650;23.248;2023-11-19T10:27:19;92634.34;;;1.83;64.43
53041;BME280;39326;42.650;23.248;2023-11-19T10:29:47;92623.41;;;1.93;62.94
53041;BME280;39326;42.650;23.248;2023-11-19T10:32:13;92615.94;;;1.83;63.02
53041;BME280;39326;42.650;23.248;2023-11-19T10:34:42;92608.63;;;2.25;62.49
53041;BME280;39326;42.650;23.248;2023-11-19T10:37:08;92605.66;;;2.39;61.90
53041;BME280;39326;42.650;23.248;2023-11-19T10:39:53;92606.41;;;2.76;60.01
53041;BME280;39326;42.650;23.248;2023-11-19T10:42:21;92609.41;;;3.02;60.20
53041;BME280;39326;42.650;23.248;2023-11-19T10:44:47;92616.25;;;2.91;58.61
53041;BME280;39326;42.650;23.248;2023-11-19T10:47:19;92608.13;;;2.96;59.11
53041;BME280;39326;42.650;23.248;2023-11-19T10:49:45;92611.19;;;2.98;59.88
53041;BME280;39326;42.650;23.248;2023-11-19T10:52:19;92618.13;;;2.78;59.44
53041;BME280;39326;42.650;23.248;2023-11-19T10:54:49;92601.91;;;2.64;58.68
53041;BME280;39326;42.650;23.248;2023-11-19T10:57:21;92599.84;;;2.45;60.17
53041;BME280;39326;42.650;23.248;2023-11-19T10:59:52;92608.75;;;2.29;59.90
53041;BME280;39326;42.650;23.248;2023-11-19T11:02:24;92600.63;;;2.34;60.48
53041;BME280;39326;42.650;23.248;2023-11-19T11:04:51;92593.50;;;2.34;59.45
53041;BME280;39326;42.650;23.248;2023-11-19T11:07:20;92586.91;;;2.65;60.16
53041;BME280;39326;42.650;23.248;2023-11-19T11:09:47;92560.16;;;2.91;59.40
53041;BME280;39326;42.650;23.248;2023-11-19T11:12:15;92552.53;;;3.14;58.73
53041;BME280;39326;42.650;23.248;2023-11-19T11:14:42;92548.38;;;3.13;58.96
53041;BME280;39326;42.650;23.248;2023-11-19T11:17:11;92546.09;;;3.27;58.45
53041;BME280;39326;42.650;23.248;2023-11-19T11:19:38;92543.25;;;3.48;58.57
53041;BME280;39326;42.650;23.248;2023-11-19T11:22:05;92549.84;;;4.01;59.05
53041;BME280;39326;42.650;23.248;2023-11-19T11:30:39;92543.41;;;4.14;55.69
53041;BME280;39326;42.650;23.248;2023-11-19T11:33:32;92545.66;;;4.48;55.23
53041;BME280;39326;42.650;23.248;2023-11-19T11:36:10;92549.44;;;4.66;53.10
53041;BME280;39326;42.650;23.248;2023-11-19T11:38:40;92544.34;;;4.57;52.86
53041;BME280;39326;42.650;23.248;2023-11-19T11:41:23;92539.38;;;4.36;52.10
53041;BME280;39326;42.650;23.248;2023-11-19T11:43:54;92526.00;;;4.29;54.01
53041;BME280;39326;42.650;23.248;2023-11-19T11:49:04;92526.03;;;5.03;50.88
53041;BME280;39326;42.650;23.248;2023-11-19T11:54:09;92515.47;;;5.03;52.13
53041;BME280;39326;42.650;23.248;2023-11-19T11:56:38;92521.03;;;5.17;50.74
53041;BME280;39326;42.650;23.248;2023-11-19T11:59:08;92519.56;;;5.39;51.45
53041;BME280;39326;42.650;23.248;2023-11-19T12:01:35;92517.09;;;5.50;51.35
53041;BME280;39326;42.650;23.248;2023-11-19T12:04:00;92519.91;;;5.61;51.20
53041;BME280;39326;42.650;23.248;2023-11-19T12:06:27;92519.28;;;5.67;49.94
53041;BME280;39326;42.650;23.248;2023-11-19T12:08:52;92512.94;;;5.72;50.32
53041;BME280;39326;42.650;23.248;2023-11-19T12:11:24;92508.66;;;5.64;50.14
53041;BME280;39326;42.650;23.248;2023-11-19T12:13:56;92504.94;;;5.91;50.16
53041;BME280;39326;42.650;23.248;2023-11-19T12:16:23;92497.34;;;5.90;49.64
53041;BME280;39326;42.650;23.248;2023-11-19T12:18:49;92504.63;;;6.19;48.87
53041;BME280;39326;42.650;23.248;2023-11-19T12:21:28;92497.81;;;6.18;48.24
53041;BME280;39326;42.650;23.248;2023-11-19T12:23:55;92504.25;;;6.21;49.03
53041;BME280;39326;42.650;23.248;2023-11-19T12:26:35;92502.75;;;6.20;47.26
53041;BME280;39326;42.650;23.248;2023-11-19T12:29:02;92483.13;;;6.24;48.03
53041;BME280;39326;42.650;23.248;2023-11-19T12:31:29;92476.53;;;6.64;47.15
53041;BME280;39326;42.650;23.248;2023-11-19T12:33:55;92474.31;;;6.70;46.98
53041;BME280;39326;42.650;23.248;2023-11-19T12:36:21;92473.97;;;6.45;45.70
53041;BME280;39326;42.650;23.248;2023-11-19T12:38:46;92487.06;;;6.61;45.81
53041;BME280;39326;42.650;23.248;2023-11-19T12:41:12;92482.81;;;6.82;46.33
53041;BME280;39326;42.650;23.248;2023-11-19T12:43:39;92486.75;;;6.66;46.59
53041;BME280;39326;42.650;23.248;2023-11-19T12:46:23;92494.25;;;6.60;45.68
53041;BME280;39326;42.650;23.248;2023-11-19T12:48:49;92472.75;;;6.65;46.00
53041;BME280;39326;42.650;23.248;2023-11-19T12:51:15;92476.97;;;6.17;46.73
53041;BME280;39326;42.650;23.248;2023-11-19T12:53:53;92477.53;;;6.03;46.55
53041;BME280;39326;42.650;23.248;2023-11-19T12:56:24;92481.22;;;5.30;48.27
53041;BME280;39326;42.650;23.248;2023-11-19T12:58:50;92473.66;;;5.28;48.89
53041;BME280;39326;42.650;23.248;2023-11-19T13:01:19;92479.16;;;5.42;49.25
53041;BME280;39326;42.650;23.248;2023-11-19T13:03:46;92472.84;;;5.47;48.82
53041;BME280;39326;42.650;23.248;2023-11-19T13:06:13;92465.09;;;5.58;47.68
53041;BME280;39326;42.650;23.248;2023-11-19T13:08:45;92451.25;;;5.68;46.83
53041;BME280;39326;42.650;23.248;2023-11-19T13:11:12;92468.22;;;5.63;47.32